sensor_id;sensor_type;location;lat;lon;timestamp;P1;durP1;ratioP1;P2;durP2;ratioP2
16727;SDS011;8482;54.396;18.590;2022-12-07T15:22:24;9.57;;;2.93;;
16727;SDS011;8482;54.396;18.590;2022-12-07T15:24:50;6.47;;;2.73;;
16727;SDS011;8482;54.396;18.590;2022-12-07T15:27:16;7.73;;;3.00;;
16727;SDS011;8482;54.396;18.590;2022-12-07T15:29:42;4.03;;;1.83;;
16727;SDS011;8482;54.396;18.590;2022-12-07T15:32:08;5.17;;;2.10;;
16727;SDS011;8482;54.396;18.590;2022-12-07T15:34:34;5.27;;;2.57;;
16727;SDS011;8482;54.396;18.590;2022-12-07T15:37:00;5.97;;;2.67;;
16727;SDS011;8482;54.396;18.590;2022-12-07T15:39:26;5.57;;;2.57;;
16727;SDS011;8482;54.396;18.590;2022-12-07T15:41:52;6.37;;;2.53;;
16727;SDS011;8482;54.396;18.590;2022-12-07T15:44:17;5.20;;;2.67;;
16727;SDS011;8482;54.396;18.590;2022-12-07T15:47:05;5.10;;;2.43;;
16727;SDS011;8482;54.396;18.590;2022-12-07T15:49:31;5.33;;;2.60;;
16727;SDS011;8482;54.396;18.590;2022-12-07T15:51:56;6.57;;;2.60;;
16727;SDS011;8482;54.396;18.590;2022-12-07T15:54:23;5.37;;;2.50;;
16727;SDS011;8482;54.396;18.590;2022-12-07T15:56:54;5.93;;;2.60;;
16727;SDS011;8482;54.396;18.590;2022-12-07T15:59:21;5.23;;;2.73;;
16727;SDS011;8482;54.396;18.590;2022-12-07T16:01:48;5.33;;;2.93;;
16727;SDS011;8482;54.396;18.590;2022-12-07T16:04:13;4.60;;;2.40;;
16727;SDS011;8482;54.396;18.590;2022-12-07T16:06:39;5.03;;;2.67;;
16727;SDS011;8482;54.396;18.590;2022-12-07T16:09:05;6.20;;;2.70;;
16727;SDS011;8482;54.396;18.590;2022-12-07T16:11:32;6.40;;;3.07;;
16727;SDS011;8482;54.396;18.590;2022-12-07T16:13:58;5.60;;;2.77;;
16727;SDS011;8482;54.396;18.590;2022-12-07T16:16:24;5.40;;;2.70;;
16727;SDS011;8482;54.396;18.590;2022-12-07T16:18:50;5.67;;;2.60;;
16727;SDS011;8482;54.396;18.590;2022-12-07T16:21:17;5.97;;;2.77;;
16727;SDS011;8482;54.396;18.590;2022-12-07T16:23:43;4.40;;;2.30;;
16727;SDS011;8482;54.396;18.590;2022-12-07T16:26:13;6.50;;;2.90;;
16727;SDS011;8482;54.396;18.590;2022-12-07T16:28:43;6.10;;;2.80;;
16727;SDS011;8482;54.396;18.590;2022-12-07T16:31:14;6.77;;;2.80;;
16727;SDS011;8482;54.396;18.590;2022-12-07T16:33:42;4.57;;;2.23;;
16727;SDS011;8482;54.396;18.590;2022-12-07T16:36:09;5.57;;;2.47;;
16727;SDS011;8482;54.396;18.590;2022-12-07T16:38:38;4.70;;;2.20;;
16727;SDS011;8482;54.396;18.590;2022-12-07T16:41:05;5.57;;;2.63;;
16727;SDS011;8482;54.396;18.590;2022-12-07T16:43:32;4.87;;;2.30;;
16727;SDS011;8482;54.396;18.590;2022-12-07T16:45:58;3.60;;;1.97;;
16727;SDS011;8482;54.396;18.590;2022-12-07T16:48:25;4.93;;;2.30;;
16727;SDS011;8482;54.396;18.590;2022-12-07T16:50:51;6.37;;;2.50;;
16727;SDS011;8482;54.396;18.590;2022-12-07T16:53:21;4.63;;;2.23;;
16727;SDS011;8482;54.396;18.590;2022-12-07T16:55:49;4.63;;;2.47;;
16727;SDS011;8482;54.396;18.590;2022-12-07T16:58:16;3.80;;;1.77;;
16727;SDS011;8482;54.396;18.590;2022-12-07T17:00:43;3.70;;;1.87;;
16727;SDS011;8482;54.396;18.590;2022-12-07T17:03:09;4.20;;;2.23;;
16727;SDS011;8482;54.396;18.590;2022-12-07T17:05:37;4.27;;;1.90;;
16727;SDS011;8482;54.396;18.590;2022-12-07T17:08:08;4.23;;;2.00;;
16727;SDS011;8482;54.396;18.590;2022-12-07T17:10:36;6.10;;;2.00;;
16727;SDS011;8482;54.396;18.590;2022-12-07T17:13:07;4.90;;;2.30;;
16727;SDS011;8482;54.396;18.590;2022-12-07T17:16:10;4.63;;;1.83;;
16727;SDS011;8482;54.396;18.590;2022-12-07T17:18:36;3.57;;;1.97;;
16727;SDS011;8482;54.396;18.590;2022-12-07T17:21:05;3.47;;;1.73;;
16727;SDS011;8482;54.396;18.590;2022-12-07T17:23:34;3.37;;;1.47;;
16727;SDS011;8482;54.396;18.590;2022-12-07T17:26:08;5.07;;;2.00;;
16727;SDS011;8482;54.396;18.590;2022-12-07T17:28:41;3.47;;;1.87;;
16727;SDS011;8482;54.396;18.590;2022-12-07T17:31:09;4.20;;;1.53;;
16727;SDS011;8482;54.396;18.590;2022-12-07T17:33:37;3.93;;;2.00;;
16727;SDS011;8482;54.396;18.590;2022-12-07T17:36:13;3.37;;;1.83;;
16727;SDS011;8482;54.396;18.590;2022-12-07T17:38:51;4.93;;;2.47;;
16727;SDS011;8482;54.396;18.590;2022-12-07T17:41:19;4.20;;;1.60;;
16727;SDS011;8482;54.396;18.590;2022-12-07T17:44:07;4.23;;;1.70;;
16727;SDS011;8482;54.396;18.590;2022-12-07T17:46:37;3.33;;;1.63;;
16727;SDS011;8482;54.396;18.590;2022-12-07T17:49:04;4.30;;;2.20;;
16727;SDS011;8482;54.396;18.590;2022-12-07T17:51:31;4.33;;;1.97;;
16727;SDS011;8482;54.396;18.590;2022-12-07T17:54:15;4.97;;;2.30;;
16727;SDS011;8482;54.396;18.590;2022-12-07T17:56:42;5.70;;;2.17;;
16727;SDS011;8482;54.396;18.590;2022-12-07T17:59:09;4.07;;;2.10;;
16727;SDS011;8482;54.396;18.590;2022-12-07T18:01:37;6.23;;;2.47;;
16727;SDS011;8482;54.396;18.590;2022-12-07T18:04:04;5.10;;;2.27;;
16727;SDS011;8482;54.396;18.590;2022-12-07T18:06:30;4.30;;;2.60;;
16727;SDS011;8482;54.396;18.590;2022-12-07T18:08:56;5.30;;;2.00;;
16727;SDS011;8482;54.396;18.590;2022-12-07T18:11:23;3.73;;;1.67;;
16727;SDS011;8482;54.396;18.590;2022-12-07T18:13:50;5.40;;;2.13;;
16727;SDS011;8482;54.396;18.590;2022-12-07T18:16:18;4.93;;;2.10;;
16727;SDS011;8482;54.396;18.590;2022-12-07T18:18:48;3.93;;;2.00;;
16727;SDS011;8482;54.396;18.590;2022-12-07T18:21:18;4.27;;;1.80;;
16727;SDS011;8482;54.396;18.590;2022-12-07T18:23:50;4.40;;;2.33;;
16727;SDS011;8482;54.396;18.590;2022-12-07T18:26:20;5.17;;;2.27;;
16727;SDS011;8482;54.396;18.590;2022-12-07T18:28:47;3.87;;;1.70;;
16727;SDS011;8482;54.396;18.590;2022-12-07T18:31:14;4.03;;;1.90;;
16727;SDS011;8482;54.396;18.590;2022-12-07T18:33:41;4.57;;;1.93;;
16727;SDS011;8482;54.396;18.590;2022-12-07T18:36:09;4.90;;;1.90;;
16727;SDS011;8482;54.396;18.590;2022-12-07T18:38:36;5.40;;;2.23;;
16727;SDS011;8482;54.396;18.590;2022-12-07T18:41:05;3.10;;;1.80;;
16727;SDS011;8482;54.396;18.590;2022-12-07T18:43:33;3.23;;;1.60;;
16727;SDS011;8482;54.396;18.590;2022-12-07T18:45:59;3.10;;;1.43;;
16727;SDS011;8482;54.396;18.590;2022-12-07T18:48:25;3.17;;;1.50;;
16727;SDS011;8482;54.396;18.590;2022-12-07T18:50:58;3.13;;;1.50;;
16727;SDS011;8482;54.396;18.590;2022-12-07T18:53:30;3.20;;;1.53;;
16727;SDS011;8482;54.396;18.590;2022-12-07T18:56:05;3.27;;;1.50;;
16727;SDS011;8482;54.396;18.590;2022-12-07T18:58:48;3.10;;;1.50;;
16727;SDS011;8482;54.396;18.590;2022-12-07T19:01:33;2.70;;;1.53;;
16727;SDS011;8482;54.396;18.590;2022-12-07T19:04:00;3.17;;;1.53;;
16727;SDS011;8482;54.396;18.590;2022-12-07T19:06:27;4.07;;;1.67;;
16727;SDS011;8482;54.396;18.590;2022-12-07T19:08:53;3.73;;;1.70;;
16727;SDS011;8482;54.396;18.590;2022-12-07T19:11:21;4.53;;;2.20;;
16727;SDS011;8482;54.396;18.590;2022-12-07T19:14:11;4.30;;;2.13;;
16727;SDS011;8482;54.396;18.590;2022-12-07T19:16:40;6.50;;;2.53;;
16727;SDS011;8482;54.396;18.590;2022-12-07T19:19:07;3.47;;;1.60;;
16727;SDS011;8482;54.396;18.590;2022-12-07T19:21:33;5.13;;;2.27;;
16727;SDS011;8482;54.396;18.590;2022-12-07T19:24:02;5.87;;;1.93;;
16727;SDS011;8482;54.396;18.590;2022-12-07T19:26:29;3.97;;;1.83;;
16727;SDS011;8482;54.396;18.590;2022-12-07T19:28:56;4.73;;;2.10;;
16727;SDS011;8482;54.396;18.590;2022-12-07T19:31:21;4.00;;;1.83;;
16727;SDS011;8482;54.396;18.590;2022-12-07T19:33:47;4.67;;;2.00;;
16727;SDS011;8482;54.396;18.590;2022-12-07T19:36:13;3.07;;;1.60;;
16727;SDS011;8482;54.396;18.590;2022-12-07T19:38:39;4.43;;;1.70;;
16727;SDS011;8482;54.396;18.590;2022-12-07T19:41:05;3.77;;;1.60;;
16727;SDS011;8482;54.396;18.590;2022-12-07T19:43:54;2.93;;;1.70;;
16727;SDS011;8482;54.396;18.590;2022-12-07T19:46:20;4.00;;;1.30;;
16727;SDS011;8482;54.396;18.590;2022-12-07T19:48:46;3.27;;;1.47;;
16727;SDS011;8482;54.396;18.590;2022-12-07T19:51:12;4.57;;;1.80;;
16727;SDS011;8482;54.396;18.590;2022-12-07T19:53:38;2.63;;;1.30;;
16727;SDS011;8482;54.396;18.590;2022-12-07T19:56:04;2.73;;;1.40;;
16727;SDS011;8482;54.396;18.590;2022-12-07T19:58:30;3.20;;;1.30;;
16727;SDS011;8482;54.396;18.590;2022-12-07T20:01:03;1.60;;;1.00;;
16727;SDS011;8482;54.396;18.590;2022-12-07T20:03:30;3.07;;;1.23;;
16727;SDS011;8482;54.396;18.590;2022-12-07T20:05:56;3.13;;;1.20;;
16727;SDS011;8482;54.396;18.590;2022-12-07T20:08:23;3.33;;;1.17;;
16727;SDS011;8482;54.396;18.590;2022-12-07T20:10:50;2.00;;;1.10;;
16727;SDS011;8482;54.396;18.590;2022-12-07T20:13:19;2.67;;;1.27;;
16727;SDS011;8482;54.396;18.590;2022-12-07T20:15:56;2.50;;;1.10;;
16727;SDS011;8482;54.396;18.590;2022-12-07T20:18:23;2.53;;;1.40;;
16727;SDS011;8482;54.396;18.590;2022-12-07T20:20:53;2.37;;;1.30;;
16727;SDS011;8482;54.396;18.590;2022-12-07T20:23:23;2.87;;;1.30;;
16727;SDS011;8482;54.396;18.590;2022-12-07T20:25:53;2.60;;;1.30;;
16727;SDS011;8482;54.396;18.590;2022-12-07T20:28:20;2.77;;;1.50;;
16727;SDS011;8482;54.396;18.590;2022-12-07T20:33:14;2.03;;;1.10;;
16727;SDS011;8482;54.396;18.590;2022-12-07T20:35:40;2.67;;;1.13;;
16727;SDS011;8482;54.396;18.590;2022-12-07T20:38:06;4.93;;;1.33;;
16727;SDS011;8482;54.396;18.590;2022-12-07T20:40:34;1.93;;;1.20;;
16727;SDS011;8482;54.396;18.590;2022-12-07T20:43:00;2.03;;;1.10;;
16727;SDS011;8482;54.396;18.590;2022-12-07T20:45:26;3.17;;;1.40;;
16727;SDS011;8482;54.396;18.590;2022-12-07T20:47:52;2.23;;;1.20;;
16727;SDS011;8482;54.396;18.590;2022-12-07T20:50:18;3.00;;;1.23;;
16727;SDS011;8482;54.396;18.590;2022-12-07T20:52:44;3.27;;;1.40;;
16727;SDS011;8482;54.396;18.590;2022-12-07T20:55:10;3.57;;;1.30;;
16727;SDS011;8482;54.396;18.590;2022-12-07T20:57:35;3.50;;;1.30;;
16727;SDS011;8482;54.396;18.590;2022-12-07T21:00:02;2.03;;;1.30;;
16727;SDS011;8482;54.396;18.590;2022-12-07T21:02:32;2.73;;;1.27;;
16727;SDS011;8482;54.396;18.590;2022-12-07T21:04:59;2.60;;;1.07;;
16727;SDS011;8482;54.396;18.590;2022-12-07T21:07:25;1.93;;;1.77;;
16727;SDS011;8482;54.396;18.590;2022-12-07T21:09:51;4.73;;;1.33;;
16727;SDS011;8482;54.396;18.590;2022-12-07T21:12:17;2.23;;;1.00;;
16727;SDS011;8482;54.396;18.590;2022-12-07T21:14:43;3.57;;;1.10;;
16727;SDS011;8482;54.396;18.590;2022-12-07T21:17:09;3.23;;;1.20;;
16727;SDS011;8482;54.396;18.590;2022-12-07T21:19:36;3.63;;;1.30;;
16727;SDS011;8482;54.396;18.590;2022-12-07T21:22:02;3.70;;;1.20;;
16727;SDS011;8482;54.396;18.590;2022-12-07T21:24:29;2.53;;;1.00;;
16727;SDS011;8482;54.396;18.590;2022-12-07T21:26:55;2.83;;;1.27;;
16727;SDS011;8482;54.396;18.590;2022-12-07T21:29:21;2.13;;;1.00;;
16727;SDS011;8482;54.396;18.590;2022-12-07T21:31:46;2.87;;;1.20;;
16727;SDS011;8482;54.396;18.590;2022-12-07T21:34:12;3.73;;;1.20;;
16727;SDS011;8482;54.396;18.590;2022-12-07T21:36:38;2.37;;;1.17;;
16727;SDS011;8482;54.396;18.590;2022-12-07T21:39:04;1.30;;;1.10;;
16727;SDS011;8482;54.396;18.590;2022-12-07T21:41:32;2.57;;;1.10;;
16727;SDS011;8482;54.396;18.590;2022-12-07T21:44:00;3.77;;;1.20;;
16727;SDS011;8482;54.396;18.590;2022-12-07T21:46:29;2.70;;;1.20;;
16727;SDS011;8482;54.396;18.590;2022-12-07T21:48:56;3.43;;;1.27;;
16727;SDS011;8482;54.396;18.590;2022-12-07T21:51:26;2.40;;;1.17;;
16727;SDS011;8482;54.396;18.590;2022-12-07T21:53:55;2.20;;;1.13;;
16727;SDS011;8482;54.396;18.590;2022-12-07T21:56:24;2.87;;;1.20;;
16727;SDS011;8482;54.396;18.590;2022-12-07T21:59:01;2.37;;;1.00;;
16727;SDS011;8482;54.396;18.590;2022-12-07T22:01:39;2.03;;;1.00;;
16727;SDS011;8482;54.396;18.590;2022-12-07T22:04:27;1.87;;;1.10;;
16727;SDS011;8482;54.396;18.590;2022-12-07T22:06:53;1.73;;;1.17;;
16727;SDS011;8482;54.396;18.590;2022-12-07T22:09:21;1.73;;;1.03;;
16727;SDS011;8482;54.396;18.590;2022-12-07T22:11:47;2.50;;;1.10;;
16727;SDS011;8482;54.396;18.590;2022-12-07T22:14:13;2.33;;;1.00;;
16727;SDS011;8482;54.396;18.590;2022-12-07T22:16:58;3.23;;;1.07;;
16727;SDS011;8482;54.396;18.590;2022-12-07T22:19:24;2.27;;;1.20;;
16727;SDS011;8482;54.396;18.590;2022-12-07T22:21:51;1.73;;;1.17;;
16727;SDS011;8482;54.396;18.590;2022-12-07T22:24:17;2.60;;;1.10;;
